| time (UTC) | temp F | wind direction | speed knots | gust knots | rain 1hr in | rain 24hr in | rain mn in | humidity % | barometer mb |
| 20260509043053 | 48 | 145 | 2.6 | 6.1 | 0.00 | 0.00 | 0.00 | 43 | 1001.3 |
| 20260509041538 | 48 | 133 | 1.7 | 4.3 | 0.00 | 0.00 | 0.00 | 42 | 1001.4 |
| 20260509040038 | 48 | 134 | 1.7 | 3.5 | 0.00 | 0.00 | 0.00 | 43 | 1001.4 |
| 20260509034537 | 48 | 140 | 1.7 | 2.6 | 0.00 | 0.00 | 0.00 | 45 | 1001.6 |
| 20260509033026 | 49 | 140 | 1.7 | 3.5 | 0.00 | 0.00 | 0.00 | 41 | 1001.6 |
| 20260509031527 | 48 | 140 | 0.9 | 3.5 | 0.00 | 0.00 | 0.00 | 42 | 1001.7 |
| 20260509030031 | 48 | 136 | 0.9 | 1.7 | 0.00 | 0.00 | 0.00 | 44 | 1001.9 |
| 20260509024506 | 49 | 136 | 0.0 | 1.7 | 0.00 | 0.00 | 0.00 | 42 | 1002.0 |
| 20260509023100 | 49 | 129 | 0.9 | 2.6 | 0.00 | 0.00 | 0.00 | 42 | 1002.2 |
| 20260509021553 | 49 | 136 | 1.7 | 2.6 | 0.00 | 0.00 | 0.00 | 43 | 1002.3 |
| 20260509020100 | 49 | 136 | 0.9 | 1.7 | 0.00 | 0.00 | 0.00 | 42 | 1002.3 |
| 20260509014549 | 50 | 136 | 0.0 | 2.6 | 0.00 | 0.00 | 0.00 | 44 | 1002.2 |
| 20260509013049 | 51 | 117 | 0.0 | 0.9 | 0.00 | 0.00 | 0.00 | 38 | 1002.0 |
| 20260509011553 | 53 | 117 | 0.0 | 0.9 | 0.00 | 0.00 | 0.00 | 34 | 1001.9 |
| 20260509010047 | 54 | 117 | 0.9 | 1.7 | 0.00 | 0.00 | 0.00 | 27 | 1002.1 |
| 20260509004543 | 56 | 118 | 0.9 | 1.7 | 0.00 | 0.00 | 0.00 | 25 | 1002.0 |
| 20260509003027 | 60 | 231 | 0.9 | 3.5 | 0.00 | 0.00 | 0.00 | 20 | 1002.1 |
| 20260509001514 | 60 | 258 | 1.7 | 4.3 | 0.00 | 0.00 | 0.00 | 20 | 1002.2 |
| 20260509000010 | 61 | 253 | 1.7 | 7.0 | 0.00 | 0.00 | 0.00 | 20 | 1002.4 |
| 20260508234512 | 61 | 283 | 3.5 | 8.7 | 0.00 | 0.00 | 0.00 | 21 | 1002.6 |
| 20260508233008 | 62 | 260 | 4.3 | 7.8 | 0.00 | 0.00 | 0.00 | 1002.7 | |
| 20260508231505 | 62 | 261 | 4.3 | 0.0 | 0.00 | 0.00 | 0.00 | 21 | 1002.6 |
| 20260508230005 | 62 | 274 | 5.2 | 12.2 | 0.00 | 0.00 | 0.00 | 22 | 1002.6 |
| 20260508224502 | 63 | 292 | 6.1 | 10.4 | 0.00 | 0.00 | 0.00 | 21 | 1002.5 |
| 20260508223003 | 64 | 259 | 7.8 | 12.2 | 0.00 | 0.00 | 0.00 | 20 | 1002.6 |
| 20260508221601 | 63 | 265 | 4.3 | 12.2 | 0.00 | 0.00 | 0.00 | 1002.7 | |
| 20260508220052 | 63 | 317 | 5.2 | 10.4 | 0.00 | 0.00 | 0.00 | 22 | 1002.7 |
| 20260508214547 | 65 | 312 | 5.2 | 13.0 | 0.00 | 0.00 | 0.00 | 19 | 1002.8 |
| 20260508213045 | 65 | 261 | 8.7 | 13.9 | 0.00 | 0.00 | 0.00 | 19 | 1002.8 |
| 20260508211550 | 65 | 251 | 7.0 | 13.0 | 0.00 | 0.00 | 0.00 | 18 | 1002.9 |
| 20260508210046 | 66 | 266 | 7.8 | 14.8 | 0.00 | 0.00 | 0.00 | 20 | 1002.8 |
| 20260508204539 | 66 | 212 | 5.2 | 15.6 | 0.00 | 0.00 | 0.00 | 22 | 1003.0 |
| 20260508203043 | 65 | 253 | 5.2 | 18.2 | 0.00 | 0.00 | 0.00 | 23 | 1003.2 |
| 20260508201536 | 65 | 287 | 9.6 | 13.9 | 0.00 | 0.00 | 0.00 | 21 | 1003.3 |
| 20260508200025 | 66 | 300 | 8.7 | 14.8 | 0.00 | 0.00 | 0.00 | 20 | 1003.5 |
| 20260508194520 | 65 | 212 | 7.8 | 13.0 | 0.00 | 0.00 | 0.00 | 22 | 1003.7 |
| 20260508193018 | 65 | 294 | 7.8 | 13.0 | 0.00 | 0.00 | 0.00 | 21 | 1003.7 |
| 20260508191520 | 67 | 228 | 4.3 | 11.3 | 0.00 | 0.00 | 0.00 | 22 | 1004.0 |
| 20260508190019 | 64 | 290 | 9.6 | 13.0 | 0.00 | 0.00 | 0.00 | 21 | 1004.0 |
| 20260508184520 | 66 | 205 | 4.3 | 13.0 | 0.00 | 0.00 | 0.00 | 21 | 1004.2 |
| 20260508183019 | 66 | 232 | 4.3 | 13.9 | 0.00 | 0.00 | 0.00 | 23 | 1004.3 |
| 20260508181514 | 65 | 240 | 5.2 | 13.0 | 0.00 | 0.00 | 0.00 | 22 | 1004.5 |
| 20260508180054 | 63 | 295 | 7.8 | 14.8 | 0.00 | 0.00 | 0.00 | 24 | 1004.5 |
| 20260508174557 | 65 | 325 | 6.1 | 14.8 | 0.00 | 0.00 | 0.00 | 22 | 1004.8 |
| 20260508173050 | 66 | 303 | 6.1 | 12.2 | 0.00 | 0.00 | 0.00 | 23 | 1005.1 |
| 20260508171546 | 65 | 292 | 6.1 | 13.9 | 0.00 | 0.00 | 0.00 | 24 | 1005.3 |
| 20260508170046 | 66 | 293 | 8.7 | 13.9 | 0.00 | 0.00 | 0.00 | 22 | 1005.5 |
| 20260508164542 | 65 | 284 | 3.5 | 13.0 | 0.00 | 0.00 | 0.00 | 25 | 1005.7 |
| 20260508163039 | 66 | 301 | 4.3 | 9.6 | 0.00 | 0.00 | 0.00 | 26 | 1006.2 |
| 20260508161536 | 63 | 200 | 1.7 | 8.7 | 0.00 | 0.00 | 0.00 | 28 | 1006.2 |
| 20260508160025 | 62 | 307 | 4.3 | 9.6 | 0.00 | 0.00 | 0.00 | 30 | 1006.3 |
| 20260508154522 | 60 | 331 | 1.7 | 9.6 | 0.00 | 0.00 | 0.00 | 33 | 1006.4 |
| 20260508153019 | 64 | 246 | 1.7 | 11.3 | 0.00 | 0.00 | 0.00 | 29 | 1006.4 |
| 20260508151518 | 63 | 265 | 3.5 | 8.7 | 0.00 | 0.00 | 0.00 | 33 | 1006.5 |
| 20260508150035 | 60 | 247 | 3.5 | 12.2 | 0.00 | 0.00 | 0.00 | 33 | 1006.7 |
| 20260508144514 | 61 | 213 | 4.3 | 7.8 | 0.00 | 0.00 | 0.00 | 35 | 1006.8 |
| 20260508143014 | 58 | 245 | 1.7 | 5.2 | 0.00 | 0.00 | 0.00 | 49 | 1006.8 |
| 20260508141509 | 55 | 203 | 3.5 | 6.1 | 0.00 | 0.00 | 0.00 | 53 | 1007.1 |
| 20260508140107 | 52 | 138 | 1.7 | 6.1 | 0.00 | 0.00 | 0.00 | 62 | 1007.0 |
| 20260508134556 | 55 | 117 | 1.7 | 6.1 | 0.00 | 0.00 | 0.00 | 61 | 1007.1 |
| 20260508133104 | 52 | 153 | 1.7 | 5.2 | 0.00 | 0.00 | 0.00 | 1007.2 | |
| 20260508131550 | 51 | 149 | 2.6 | 5.2 | 0.00 | 0.00 | 0.00 | 71 | 1007.3 |
| 20260508130046 | 48 | 127 | 1.7 | 3.5 | 0.00 | 0.00 | 0.00 | 74 | 1007.3 |
| 20260508124545 | 47 | 161 | 0.0 | 2.6 | 0.00 | 0.00 | 0.00 | 75 | 1007.4 |
| 20260508123042 | 44 | 202 | 0.9 | 2.6 | 0.00 | 0.00 | 0.00 | 80 | 1007.5 |
| 20260508121540 | 41 | 146 | 0.9 | 2.6 | 0.00 | 0.00 | 0.00 | 85 | 1007.1 |
| 20260508120025 | 40 | 144 | 0.0 | 0.0 | 0.00 | 0.00 | 0.00 | 88 | 1006.9 |
| 20260508114529 | 38 | 140 | 0.0 | 0.0 | 0.00 | 0.00 | 0.00 | 91 | 1006.9 |
| 20260508113024 | 36 | 144 | 0.0 | 0.0 | 0.00 | 0.00 | 0.00 | 92 | 1006.8 |
| 20260508111521 | 36 | 144 | 0.0 | 0.0 | 0.00 | 0.00 | 0.00 | 93 | 1006.7 |
| 20260508110020 | 34 | 144 | 0.0 | 0.0 | 0.00 | 0.00 | 0.00 | 92 | 1006.7 |
| 20260508104520 | 33 | 144 | 0.0 | 0.0 | 0.00 | 0.00 | 0.00 | 92 | 1006.6 |
| 20260508103020 | 33 | 61 | 0.0 | 0.0 | 0.00 | 0.00 | 0.00 | 91 | 1006.4 |
| 20260508101520 | 34 | 47 | 0.0 | 0.0 | 0.00 | 0.00 | 0.00 | 91 | 1006.4 |
| 20260508100002 | 34 | 47 | 0.0 | 0.0 | 0.00 | 0.00 | 0.00 | 90 | 1006.5 |
| 20260508094502 | 34 | 47 | 0.0 | 0.0 | 0.00 | 0.00 | 0.00 | 90 | 1006.5 |
| 20260508093002 | 34 | 57 | 0.0 | 0.0 | 0.00 | 0.00 | 0.00 | 90 | 1006.6 |
| 20260508091501 | 34 | 93 | 0.0 | 0.0 | 0.00 | 0.00 | 0.00 | 91 | 1006.6 |
| 20260508090103 | 35 | 153 | 0.0 | 0.0 | 0.00 | 0.00 | 0.00 | 90 | 1006.7 |
| 20260508084613 | 36 | 153 | 0.0 | 0.0 | 0.00 | 0.00 | 0.00 | 89 | 1006.6 |
| 20260508083106 | 36 | 153 | 0.0 | 0.9 | 0.00 | 0.00 | 0.00 | 86 | 1006.7 |
| 20260508081554 | 37 | 153 | 0.0 | 0.0 | 0.00 | 0.00 | 0.00 | 1006.7 | |
| 20260508080054 | 37 | 153 | 0.0 | 0.9 | 0.00 | 0.00 | 0.00 | 86 | 1006.7 |
| 20260508074542 | 37 | 153 | 0.0 | 0.0 | 0.00 | 0.00 | 0.00 | 85 | 1006.7 |
| 20260508073041 | 37 | 153 | 0.0 | 0.0 | 0.00 | 0.00 | 0.00 | 85 | 1006.9 |
| 20260508071533 | 38 | 153 | 0.0 | 0.0 | 0.00 | 0.00 | 0.00 | 83 | 1007.1 |
| 20260508070033 | 38 | 153 | 0.0 | 0.0 | 0.00 | 0.00 | 0.00 | 81 | 1007.3 |
| 20260508064544 | 38 | 153 | 0.0 | 0.0 | 0.00 | 0.00 | 0.00 | 82 | 1007.3 |
| 20260508063030 | 39 | 153 | 0.0 | 2.6 | 0.00 | 0.00 | 0.00 | 1007.4 | |
| 20260508061531 | 40 | 161 | 1.7 | 3.5 | 0.00 | 0.00 | 0.00 | 77 | 1007.4 |
| 20260508060014 | 40 | 355 | 0.0 | 0.0 | 0.00 | 0.00 | 0.00 | 74 | 1007.6 |
| 20260508054521 | 40 | 347 | 0.0 | 0.0 | 0.00 | 0.00 | 0.00 | 75 | 1007.5 |
| 20260508053010 | 40 | 13 | 0.0 | 0.9 | 0.00 | 0.00 | 0.00 | 78 | 1007.4 |
| 20260508051508 | 40 | 316 | 0.0 | 0.9 | 0.00 | 0.00 | 0.00 | 83 | 1007.4 |
| 20260508050009 | 40 | 288 | 0.0 | 0.0 | 0.00 | 0.00 | 0.00 | 83 | 1007.5 |
| 20260508044505 | 40 | 288 | 0.0 | 0.0 | 0.00 | 0.00 | 0.00 | 1007.5 |